Darstellungsparameter: Aktuell verwendete Einstellungen:
Skalierung der Graphiken ... ?
xyx+y,   Skalierungsfaktor:      Skalierung: Modus: x, Faktor: 1
Darstellungszeitraum ... ?
Vom - - bis: - -   Zeitraum: 25.07.2011 - 25.07.2011
Min/Max/Avg-Anzeige ... ?
Zeige MMA aktuell
Zeige MMA Monat
Zeige MMA alles
Zeige --A aktuell
Zeige --A Monat
Zeige --A alles
Keine MMA-Anzeige
MMA:
Average (ber die Originaldaten)
MMA-Basis: 25.07.2011 - 25.07.2011
Quicknavigation für Darstellung... ?
Tage:      1T, 2T, 3T, 5T -1T -2T -3T -5T +1T +2T +3T +5T
Wochen: 1W, 2W, 3W -1W -2W -3W +1W +2W +3W
Monate: 1M, 3M, 6M -1M -3M -6M +1M +3M +6M
Jahre:    1J, 3J, 5J, 10J -1J -3J -5J -10J +1J +3J +5J +10J
Nutze für die Darstellung ... ?
Originaldaten oder Mittelwerte auf ...
Stundenbasis Tagesbasis Wochenbasis
Monatsbasis Jahresbasis      Datenbasis: Original-Daten
Darstellen als:
Statistik (Auto) Statistik J:M      Darstellung:
Zur Graphik,    zurück zur Übersicht aller Sensoren.
 
Tabellarische Datenbersicht: ?
 
Sensor: Nr:Datum:Temp:Abs-Feuchte:Windchill:Wind:
Aussen-T/F 1 25-07-2011 00:08:02 12 C 9.38 g/m*3 12 C 0 km/h
2 25-07-2011 00:20:02 12 C 9.38 g/m*3 12 C 0 km/h
3 25-07-2011 00:32:02 11.8 C 9.37 g/m*3 11.8 C 0 km/h
4 25-07-2011 00:44:03 11.7 C 9.31 g/m*3 11.7 C 0 km/h
5 25-07-2011 00:56:03 11.6 C 9.25 g/m*3 11.6 C 0 km/h
6 25-07-2011 01:08:03 11.7 C 9.31 g/m*3 11.7 C 0 km/h
7 25-07-2011 01:20:03 11.8 C 9.37 g/m*3 11.8 C 0 km/h
8 25-07-2011 01:32:03 11.6 C 9.25 g/m*3 11.6 C 0 km/h
9 25-07-2011 01:44:03 11.6 C 9.25 g/m*3 11.6 C 0 km/h
10 25-07-2011 01:56:03 11.5 C 9.19 g/m*3 11.5 C 0 km/h
11 25-07-2011 02:08:03 11.5 C 9.19 g/m*3 11.5 C 0 km/h
12 25-07-2011 02:20:03 11.4 C 9.14 g/m*3 11.4 C 0 km/h
13 25-07-2011 02:32:03 11.8 C 9.37 g/m*3 11.8 C 0 km/h
14 25-07-2011 02:44:03 11.5 C 9.3 g/m*3 11.5 C 0 km/h
15 25-07-2011 02:56:03 11.4 C 9.14 g/m*3 11.4 C 0 km/h
16 25-07-2011 03:08:03 11.4 C 9.24 g/m*3 11.4 C 0 km/h
17 25-07-2011 03:20:03 11.5 C 9.3 g/m*3 11.5 C 0 km/h
18 25-07-2011 03:32:03 11.5 C 9.3 g/m*3 11.5 C 0 km/h
19 25-07-2011 03:44:03 11.5 C 9.3 g/m*3 11.5 C 0 km/h
20 25-07-2011 03:56:03 11.3 C 9.18 g/m*3 11.3 C 0 km/h
21 25-07-2011 04:08:03 10.8 C 8.9 g/m*3 10.8 C 0 km/h
22 25-07-2011 04:20:03 10.6 C 8.78 g/m*3 10.6 C 0 km/h
23 25-07-2011 04:32:03 10.2 C 8.47 g/m*3 10.2 C 0 km/h
24 25-07-2011 04:44:03 10 C 8.36 g/m*3 10 C 0 km/h
25 25-07-2011 04:56:03 9.8 C 8.44 g/m*3 9.8 C 0 km/h
Sensor: Nr:Datum:Temp:Abs-Feuchte:Windchill:Wind:
Aussen-T/F 26 25-07-2011 05:08:03 9.8 C 8.44 g/m*3 9.8 C 0 km/h
27 25-07-2011 05:20:04 10.3 C 8.62 g/m*3 10.3 C 0 km/h
28 25-07-2011 05:32:04 10.2 C 8.56 g/m*3 10.2 C 0 km/h
29 25-07-2011 05:44:04 10 C 8.46 g/m*3 10 C 0 km/h
30 25-07-2011 05:56:04 9.9 C 8.5 g/m*3 9.9 C 0 km/h
31 25-07-2011 06:08:04 9.6 C 8.34 g/m*3 9.6 C 0 km/h
32 25-07-2011 06:20:04 9.4 C 8.23 g/m*3 9.4 C 0 km/h
33 25-07-2011 06:32:04 9.2 C 8.13 g/m*3 9.2 C 0 km/h
34 25-07-2011 06:44:04 9.2 C 8.13 g/m*3 9.2 C 0 km/h
35 25-07-2011 06:56:04 8.9 C 8.06 g/m*3 8.9 C 0 km/h
36 25-07-2011 07:08:02 9.4 C 8.23 g/m*3 9.4 C 0 km/h
37 25-07-2011 07:20:01 9.4 C 8.23 g/m*3 9.4 C 0 km/h
38 25-07-2011 07:32:02 9.4 C 8.23 g/m*3 9.4 C 0 km/h
39 25-07-2011 07:44:02 9.4 C 8.23 g/m*3 9.4 C 0 km/h
40 25-07-2011 07:56:02 9.4 C 8.23 g/m*3 9.4 C 0 km/h
41 25-07-2011 08:08:02 9.4 C 8.23 g/m*3 9.4 C 0 km/h
42 25-07-2011 08:20:02 11 C 8.81 g/m*3 11 C 0 km/h
43 25-07-2011 08:32:02 11 C 8.81 g/m*3 11 C 0 km/h
44 25-07-2011 08:44:02 11 C 8.81 g/m*3 11 C 0 km/h
45 25-07-2011 08:56:02 11.2 C 8.92 g/m*3 11.2 C 0 km/h
46 25-07-2011 09:08:02 11.4 C 9.03 g/m*3 11.4 C 0 km/h
47 25-07-2011 09:20:03 11.7 C 9.2 g/m*3 11.7 C 0 km/h
48 25-07-2011 09:32:02 12 C 9.27 g/m*3 12 C 0 km/h
49 25-07-2011 09:44:02 12.3 C 9.45 g/m*3 12.3 C 0 km/h
50 25-07-2011 09:56:02 12.7 C 9.57 g/m*3 12.7 C 0 km/h
Sensor: Nr:Datum:Temp:Abs-Feuchte:Windchill:Wind:
Aussen-T/F 51 25-07-2011 10:08:02 13.4 C 9.76 g/m*3 13.4 C 0 km/h
52 25-07-2011 10:20:03 14.7 C 10.2 g/m*3 14.7 C 0 km/h
53 25-07-2011 10:32:02 15 C 9.23 g/m*3 15 C 0 km/h
54 25-07-2011 10:44:02 15 C 9.23 g/m*3 15 C 0 km/h
55 25-07-2011 10:56:02 15.5 C 9.12 g/m*3 15.5 C 0 km/h
56 25-07-2011 11:08:02 16.3 C 8.32 g/m*3 16.3 C 0 km/h
57 25-07-2011 11:20:02 17.1 C 6.99 g/m*3 17.1 C 0 km/h
58 25-07-2011 11:32:03 17.5 C 7.75 g/m*3 17.5 C 0 km/h
59 25-07-2011 11:44:03 18.3 C 5.94 g/m*3 18.3 C 0 km/h
60 25-07-2011 11:56:02 18.7 C 5.92 g/m*3 18.7 C 0 km/h
61 25-07-2011 12:08:01 19.1 C 5.74 g/m*3 19.1 C 0 km/h
62 25-07-2011 12:20:02 19.5 C 5.87 g/m*3 19.5 C 0 km/h
63 25-07-2011 12:32:02 19.6 C 5.74 g/m*3 19.6 C 0 km/h
64 25-07-2011 12:44:02 19.5 C 6.21 g/m*3 19.5 C 0 km/h
65 25-07-2011 12:56:02 20.4 C 6.19 g/m*3 20.4 C 0 km/h
66 25-07-2011 13:08:03 21.3 C 5.22 g/m*3 21.3 C 0 km/h
67 25-07-2011 13:20:02 21.6 C 4.93 g/m*3 21.6 C 0 km/h
68 25-07-2011 13:32:03 22.5 C 4.59 g/m*3 22.5 C 0 km/h
69 25-07-2011 13:44:03 27.2 C 5.2 g/m*3 27.2 C 0 km/h
70 25-07-2011 13:56:02 29.3 C 5.84 g/m*3 29.3 C 0 km/h
71 25-07-2011 14:08:01 26.1 C 4.9 g/m*3 26.1 C 0 km/h
72 25-07-2011 14:20:02 24.4 C 4.45 g/m*3 24.4 C 0 km/h
73 25-07-2011 14:32:02 23.9 C 4.54 g/m*3 23.9 C 0 km/h
74 25-07-2011 14:44:02 27.9 C 5.41 g/m*3 27.9 C 0 km/h
75 25-07-2011 14:56:02 23 C 6.78 g/m*3 23 C 0 km/h
Sensor: Nr:Datum:Temp:Abs-Feuchte:Windchill:Wind:
Aussen-T/F 76 25-07-2011 15:08:01 23.1 C 6.82 g/m*3 23.1 C 0 km/h
77 25-07-2011 15:20:01 29.4 C 5.87 g/m*3 29.4 C 0 km/h
78 25-07-2011 15:32:02 28 C 5.44 g/m*3 28 C 0 km/h
79 25-07-2011 15:44:02 27.3 C 5.23 g/m*3 27.3 C 0 km/h
80 25-07-2011 15:56:02 24.3 C 4.43 g/m*3 24.3 C 0 km/h
81 25-07-2011 16:08:02 26.2 C 7.14 g/m*3 26.2 C 0 km/h
82 25-07-2011 16:20:02 23.9 C 7.36 g/m*3 23.9 C 0 km/h
83 25-07-2011 16:32:02 22.7 C 7.48 g/m*3 22.7 C 0 km/h
84 25-07-2011 16:44:02 22.1 C 8 g/m*3 22.1 C 0 km/h
85 25-07-2011 16:56:01 22.8 C 8.13 g/m*3 22.8 C 0 km/h
86 25-07-2011 17:08:02 22.7 C 8.28 g/m*3 22.7 C 0 km/h
87 25-07-2011 17:20:01 24.8 C 6.83 g/m*3 24.8 C 0 km/h
88 25-07-2011 17:32:02 24.5 C 5.15 g/m*3 24.5 C 0 km/h
89 25-07-2011 17:44:02 27.9 C 5.41 g/m*3 27.9 C 0 km/h
90 25-07-2011 17:56:02 30.1 C 6.1 g/m*3 30.1 C 0 km/h
91 25-07-2011 18:08:02 24 C 5.66 g/m*3 24 C 0 km/h
92 25-07-2011 18:20:01 21.7 C 8.01 g/m*3 21.7 C 0 km/h
93 25-07-2011 18:32:02 21.2 C 8.15 g/m*3 21.2 C 0 km/h
94 25-07-2011 18:44:02 23.7 C 6.42 g/m*3 23.7 C 0 km/h
95 25-07-2011 18:56:02 22.3 C 8.29 g/m*3 22.3 C 0 km/h
96 25-07-2011 19:08:02 23.7 C 8.56 g/m*3 23.7 C 0 km/h
97 25-07-2011 19:20:01 20.6 C 8.77 g/m*3 20.6 C 0 km/h
98 25-07-2011 19:32:02 21.7 C 8.39 g/m*3 21.7 C 0 km/h
99 25-07-2011 19:44:02 20.1 C 8.69 g/m*3 20.1 C 0 km/h
100 25-07-2011 19:56:02 19 C 8.47 g/m*3 19 C 0 km/h
Sensor: Nr:Datum:Temp:Abs-Feuchte:Windchill:Wind:
Aussen-T/F 101 25-07-2011 20:08:02 18.2 C 8.55 g/m*3 18.2 C 0 km/h
102 25-07-2011 20:20:02 17.3 C 8.69 g/m*3 17.3 C 0 km/h
103 25-07-2011 20:32:02 16.9 C 8.49 g/m*3 16.9 C 0 km/h
104 25-07-2011 20:44:02 17 C 8.1 g/m*3 17 C 0 km/h
105 25-07-2011 20:56:02 16.7 C 8.53 g/m*3 16.7 C 0 km/h
106 25-07-2011 21:08:02 16.2 C 8.27 g/m*3 16.2 C 0 km/h
107 25-07-2011 21:20:02 16.1 C 8.36 g/m*3 16.1 C 0 km/h
108 25-07-2011 21:32:02 16.1 C 8.64 g/m*3 16.1 C 0 km/h
109 25-07-2011 21:44:02 16 C 8.58 g/m*3 16 C 0 km/h
110 25-07-2011 21:56:02 16 C 8.58 g/m*3 16 C 0 km/h
111 25-07-2011 22:08:02 15.9 C 8.67 g/m*3 15.9 C 0 km/h
112 25-07-2011 22:21:03 15.8 C 8.62 g/m*3 15.8 C 0 km/h
113 25-07-2011 22:33:03 15.9 C 8.67 g/m*3 15.9 C 0 km/h
114 25-07-2011 22:45:03 15.9 C 8.53 g/m*3 15.9 C 0 km/h
115 25-07-2011 22:57:04 15.7 C 8.56 g/m*3 15.7 C 0 km/h
116 25-07-2011 23:09:04 15.5 C 8.99 g/m*3 15.5 C 0 km/h
117 25-07-2011 23:21:04 15.3 C 9.01 g/m*3 15.3 C 0 km/h
118 25-07-2011 23:33:04 15.2 C 9.09 g/m*3 15.2 C 0 km/h
119 25-07-2011 23:45:04 15.2 C 9.22 g/m*3 15.2 C 0 km/h
120 25-07-2011 23:57:04 15.1 C 9.16 g/m*3 15.1 C 0 km/h

Legende:
   Min
   Max


Maximal/Minimal-Werte vom 25.07.2011 - 25.07.2011

Sensor Min Max Avg
Temp
(Aussen-T/F)
8.9 °C
25-07-2011  06:56:04
30.1 °C
25-07-2011  17:56:02
16.39 °C
Abs-Feuchte
(Aussen-T/F)
4.43 g/m*3
25-07-2011  15:56:02
10.2 g/m*3
25-07-2011  10:20:03
7.91 g/m*3
Windchill
(Aussen-T/F)
8.9 C
25-07-2011  06:56:04
30.1 C
25-07-2011  17:56:02
16.26 C

Die Daten stammen von einer Davis Vantage Pro 2 Wetter-Station und werden unter Linux mit der Software wview2wettercgi und aufbereitet. Alle Angaben erfolgen ohne Gewähr für ihre Vollständigkeit oder Richtigkeit.
Kontakt: Rainer Krienke krienke@uni-koblenz.de . Meine Webseiten an der Uni Koblenz oder privat.
Version: $Revision: 0.78 $